Time;durP1;ratioP1;P1;durP2;ratioP2;P2;SDS_P1;SDS_P2;PMS_P1;PMS_P2;Temp;Humidity;BMP_temperature;BMP_pressure;BME280_temperature;BME280_humidity;BME280_pressure;Samples;Min_cycle;Max_cycle;Signal;HPM_P1;HPM_P2
2022/10/16 00:01:33;;;;;;;8.57;4.90;;;;;;;;;;5098947;28;20024;-72
2022/10/16 00:04:00;;;;;;;7.80;4.75;;;;;;;;;;5095740;28;20100;-73
2022/10/16 00:06:27;;;;;;;8.30;4.82;;;;;;;;;;5098326;28;20435;-73
2022/10/16 00:08:53;;;;;;;8.40;5.25;;;;;;;;;;5105761;28;20098;-72
2022/10/16 00:11:19;;;;;;;9.23;5.03;;;;;;;;;;5093940;28;20024;-74
2022/10/16 00:13:46;;;;;;;7.63;4.65;;;;;;;;;;5084758;28;20050;-74
2022/10/16 00:16:12;;;;;;;7.00;4.72;;;;;;;;;;5113161;28;20043;-72
2022/10/16 00:18:39;;;;;;;10.43;5.45;;;;;;;;;;5095447;28;20059;-74
2022/10/16 00:21:10;;;;;;;8.25;4.93;;;;;;;;;;5097837;28;20020;-72
2022/10/16 00:23:36;;;;;;;9.77;4.88;;;;;;;;;;5099965;28;20114;-73
2022/10/16 00:26:04;;;;;;;8.77;4.78;;;;;;;;;;5091911;28;20528;-73
2022/10/16 00:28:30;;;;;;;6.90;5.00;;;;;;;;;;5112520;28;20023;-73
2022/10/16 00:30:57;;;;;;;7.97;5.38;;;;;;;;;;5106952;28;20025;-73
2022/10/16 00:33:23;;;;;;;7.65;4.95;;;;;;;;;;5118223;28;20028;-72
2022/10/16 00:35:50;;;;;;;7.30;4.60;;;;;;;;;;5087482;28;20027;-72
2022/10/16 00:38:16;;;;;;;6.47;4.80;;;;;;;;;;5075286;28;20040;-73
2022/10/16 00:40:42;;;;;;;11.95;5.25;;;;;;;;;;5094949;28;20105;-73
2022/10/16 00:43:28;;;;;;;5.93;4.80;;;;;;;;;;5091833;28;20129;-72
2022/10/16 00:45:54;;;;;;;8.85;5.00;;;;;;;;;;5077386;28;20360;-73
2022/10/16 00:48:20;;;;;;;8.18;4.57;;;;;;;;;;5094442;28;20024;-72
2022/10/16 00:50:46;;;;;;;8.73;5.00;;;;;;;;;;5092328;28;20032;-74
2022/10/16 00:53:13;;;;;;;10.77;5.35;;;;;;;;;;5090579;28;20024;-74
2022/10/16 00:55:39;;;;;;;8.15;5.00;;;;;;;;;;5094024;28;20038;-73
2022/10/16 00:58:05;;;;;;;7.50;5.20;;;;;;;;;;5094030;28;20085;-71
2022/10/16 01:00:31;;;;;;;7.22;4.93;;;;;;;;;;5093994;28;20036;-72
2022/10/16 01:02:59;;;;;;;6.90;4.80;;;;;;;;;;5091193;28;20020;-73
2022/10/16 01:05:55;;;;;;;9.30;5.13;;;;;;;;;;5093916;28;20037;-71
2022/10/16 01:08:34;;;;;;;9.85;4.82;;;;;;;;;;5012204;28;20108;-72
2022/10/16 01:11:06;;;;;;;8.43;5.25;;;;;;;;;;5011652;28;20069;-73
2022/10/16 01:13:37;;;;;;;7.57;5.00;;;;;;;;;;5013499;28;20404;-71
2022/10/16 01:16:08;;;;;;;8.90;5.22;;;;;;;;;;5011904;28;20030;-72
2022/10/16 01:18:37;;;;;;;9.70;5.40;;;;;;;;;;5012526;28;20169;-74
2022/10/16 01:21:09;;;;;;;10.73;4.90;;;;;;;;;;5011361;28;20590;-73
2022/10/16 01:23:46;;;;;;;9.73;5.35;;;;;;;;;;5013070;28;20044;-72
2022/10/16 01:26:32;;;;;;;7.03;4.82;;;;;;;;;;5016170;28;20121;-72
2022/10/16 01:29:04;;;;;;;9.25;4.95;;;;;;;;;;5011394;28;20058;-72
2022/10/16 01:31:32;;;;;;;9.63;4.88;;;;;;;;;;5007180;28;20092;-71
2022/10/16 01:34:10;;;;;;;7.43;4.55;;;;;;;;;;5011573;28;20029;-73
2022/10/16 01:36:39;;;;;;;8.75;4.75;;;;;;;;;;5000744;28;20069;-73
2022/10/16 01:39:06;;;;;;;7.75;4.70;;;;;;;;;;5011547;28;20092;-72
2022/10/16 01:41:34;;;;;;;8.02;4.68;;;;;;;;;;5011450;28;20033;-72
2022/10/16 01:44:07;;;;;;;7.63;4.75;;;;;;;;;;5027466;28;20036;-74
2022/10/16 01:46:33;;;;;;;9.25;4.97;;;;;;;;;;5086809;28;20028;-73
2022/10/16 01:49:01;;;;;;;7.75;4.63;;;;;;;;;;5094178;28;20051;-71
2022/10/16 01:51:29;;;;;;;7.85;5.00;;;;;;;;;;5093232;28;20028;-74
2022/10/16 01:53:56;;;;;;;9.73;4.95;;;;;;;;;;5091757;28;20038;-72
2022/10/16 01:56:23;;;;;;;7.78;4.68;;;;;;;;;;5088239;28;20463;-71
2022/10/16 01:58:51;;;;;;;9.80;5.18;;;;;;;;;;5093812;28;20025;-71
2022/10/16 02:01:18;;;;;;;7.30;4.70;;;;;;;;;;5093776;28;20032;-71
2022/10/16 02:03:45;;;;;;;6.38;4.70;;;;;;;;;;5091572;28;20051;-74
2022/10/16 02:06:12;;;;;;;8.93;4.93;;;;;;;;;;5089235;28;20028;-72
2022/10/16 02:08:40;;;;;;;9.20;4.90;;;;;;;;;;5082444;28;20035;-73
2022/10/16 02:11:07;;;;;;;9.85;4.82;;;;;;;;;;5090450;28;20029;-74
2022/10/16 02:13:42;;;;;;;8.30;4.88;;;;;;;;;;5092124;28;20126;-72
2022/10/16 02:16:08;;;;;;;8.35;4.43;;;;;;;;;;5087173;28;20868;-74
2022/10/16 02:18:34;;;;;;;9.00;4.80;;;;;;;;;;5091817;28;20040;-73
2022/10/16 02:21:01;;;;;;;7.55;5.05;;;;;;;;;;5089290;28;20107;-73
2022/10/16 02:23:52;;;;;;;8.20;4.65;;;;;;;;;;5093648;28;20410;-74
2022/10/16 02:26:22;;;;;;;9.07;4.65;;;;;;;;;;4978848;28;20053;-72
2022/10/16 02:28:51;;;;;;;15.25;4.75;;;;;;;;;;4973530;28;20038;-72
2022/10/16 02:31:22;;;;;;;11.23;5.10;;;;;;;;;;4963480;28;20501;-73
2022/10/16 02:33:48;;;;;;;8.65;4.72;;;;;;;;;;4983244;28;20046;-71
2022/10/16 02:36:14;;;;;;;9.95;5.07;;;;;;;;;;4981298;28;20026;-72
2022/10/16 02:38:41;;;;;;;9.48;4.75;;;;;;;;;;4983440;28;20153;-71
2022/10/16 02:41:07;;;;;;;8.32;4.57;;;;;;;;;;4955671;28;20487;-72
2022/10/16 02:43:33;;;;;;;7.43;5.10;;;;;;;;;;4981391;28;20030;-72
2022/10/16 02:46:00;;;;;;;7.63;4.88;;;;;;;;;;4983435;28;20033;-74
2022/10/16 02:48:26;;;;;;;7.07;4.70;;;;;;;;;;4979942;28;20023;-71
2022/10/16 02:50:52;;;;;;;7.18;4.47;;;;;;;;;;4970117;28;20146;-72
2022/10/16 02:53:18;;;;;;;9.18;4.55;;;;;;;;;;4981616;28;20038;-74
2022/10/16 02:55:44;;;;;;;11.55;4.65;;;;;;;;;;4973035;28;20035;-71
2022/10/16 02:58:10;;;;;;;10.73;5.25;;;;;;;;;;4975205;28;20065;-73
2022/10/16 03:00:36;;;;;;;10.68;4.72;;;;;;;;;;4970244;28;20041;-72
2022/10/16 03:03:03;;;;;;;7.15;4.93;;;;;;;;;;5016765;28;20392;-74
2022/10/16 03:05:29;;;;;;;10.45;4.95;;;;;;;;;;5092353;28;20095;-73
2022/10/16 03:07:55;;;;;;;7.25;5.10;;;;;;;;;;5081087;28;20055;-75
2022/10/16 03:10:21;;;;;;;11.15;5.00;;;;;;;;;;5085078;28;20493;-71
2022/10/16 03:12:47;;;;;;;9.10;5.10;;;;;;;;;;5083600;28;20020;-73
2022/10/16 03:15:13;;;;;;;7.75;4.78;;;;;;;;;;5083564;28;20099;-73
2022/10/16 03:17:39;;;;;;;11.25;5.45;;;;;;;;;;5069929;28;20366;-72
2022/10/16 03:20:06;;;;;;;7.95;5.18;;;;;;;;;;5080126;28;20048;-72
2022/10/16 03:22:32;;;;;;;12.23;4.93;;;;;;;;;;5084106;28;20377;-73
2022/10/16 03:24:58;;;;;;;11.38;5.20;;;;;;;;;;5087491;28;20504;-73
2022/10/16 03:27:24;;;;;;;8.15;5.45;;;;;;;;;;5086452;28;20107;-73
2022/10/16 03:29:50;;;;;;;7.32;5.32;;;;;;;;;;5089944;28;20036;-72
2022/10/16 03:32:16;;;;;;;11.50;5.18;;;;;;;;;;5077712;28;20047;-72
2022/10/16 03:34:42;;;;;;;8.57;5.47;;;;;;;;;;5083744;28;20037;-73
2022/10/16 03:37:08;;;;;;;11.90;6.00;;;;;;;;;;5086815;28;20028;-72
2022/10/16 03:39:34;;;;;;;7.60;5.30;;;;;;;;;;5087117;28;20036;-73
2022/10/16 03:42:00;;;;;;;7.75;5.13;;;;;;;;;;5089302;28;20020;-73
2022/10/16 03:44:26;;;;;;;8.25;5.43;;;;;;;;;;5085973;28;20044;-74
2022/10/16 03:46:52;;;;;;;8.50;5.80;;;;;;;;;;5088207;28;20023;-71
2022/10/16 03:49:18;;;;;;;8.20;5.40;;;;;;;;;;5087792;28;20036;-72
2022/10/16 03:51:45;;;;;;;9.18;5.72;;;;;;;;;;5089611;28;20017;-72
2022/10/16 03:54:11;;;;;;;8.88;5.95;;;;;;;;;;5083715;28;20097;-71
2022/10/16 03:56:37;;;;;;;12.60;6.15;;;;;;;;;;5086067;28;20055;-72
2022/10/16 03:59:03;;;;;;;10.07;5.50;;;;;;;;;;5088919;28;20032;-72
2022/10/16 04:01:29;;;;;;;8.52;5.45;;;;;;;;;;5087364;28;20046;-71
2022/10/16 04:03:55;;;;;;;8.35;5.10;;;;;;;;;;5091149;28;20029;-72
2022/10/16 04:06:21;;;;;;;11.02;5.88;;;;;;;;;;5082174;28;20072;-73
2022/10/16 04:08:47;;;;;;;10.75;5.63;;;;;;;;;;5093167;28;20310;-73
2022/10/16 04:11:13;;;;;;;9.77;5.15;;;;;;;;;;5084516;28;20028;-73
2022/10/16 04:13:39;;;;;;;9.52;5.70;;;;;;;;;;5097082;28;20422;-74
2022/10/16 04:16:06;;;;;;;11.45;5.90;;;;;;;;;;5092994;28;20090;-72
2022/10/16 04:18:32;;;;;;;14.90;5.82;;;;;;;;;;5095121;28;20050;-72
2022/10/16 04:21:02;;;;;;;10.20;5.70;;;;;;;;;;5083665;28;20028;-72
2022/10/16 04:23:28;;;;;;;11.38;5.65;;;;;;;;;;5081807;28;20165;-73
2022/10/16 04:25:54;;;;;;;7.43;5.15;;;;;;;;;;5091550;28;20024;-72
2022/10/16 04:28:20;;;;;;;8.82;5.57;;;;;;;;;;5088552;28;20029;-72
2022/10/16 04:30:46;;;;;;;10.18;5.32;;;;;;;;;;5091482;28;20473;-73
2022/10/16 04:33:13;;;;;;;9.75;5.43;;;;;;;;;;5091364;28;20039;-72
2022/10/16 04:35:39;;;;;;;10.57;5.30;;;;;;;;;;5093310;28;20107;-72
2022/10/16 04:38:05;;;;;;;8.45;5.32;;;;;;;;;;5092267;28;20032;-73
2022/10/16 04:40:32;;;;;;;7.13;5.07;;;;;;;;;;5094198;28;20036;-73
2022/10/16 04:42:59;;;;;;;11.15;6.15;;;;;;;;;;5091388;28;20066;-73
2022/10/16 04:45:25;;;;;;;9.95;5.88;;;;;;;;;;5093691;28;20035;-73
2022/10/16 04:47:51;;;;;;;9.05;5.55;;;;;;;;;;5091319;28;20020;-72
2022/10/16 04:50:17;;;;;;;9.75;5.80;;;;;;;;;;5092747;28;20043;-71
2022/10/16 04:52:43;;;;;;;10.48;6.00;;;;;;;;;;5093998;28;20020;-75
2022/10/16 04:55:09;;;;;;;12.15;6.63;;;;;;;;;;5085438;28;20028;-73
2022/10/16 04:57:35;;;;;;;10.20;6.63;;;;;;;;;;5098638;28;20096;-72
2022/10/16 05:00:02;;;;;;;13.57;6.63;;;;;;;;;;5091884;28;20028;-74
2022/10/16 05:02:28;;;;;;;10.60;5.88;;;;;;;;;;5099666;28;20024;-73
2022/10/16 05:04:54;;;;;;;10.75;6.38;;;;;;;;;;5093879;28;20024;-71
2022/10/16 05:07:21;;;;;;;12.80;6.38;;;;;;;;;;5088266;28;20127;-71
2022/10/16 05:09:47;;;;;;;14.70;6.75;;;;;;;;;;5090664;28;20486;-72
2022/10/16 05:12:13;;;;;;;9.93;6.22;;;;;;;;;;5091054;28;20060;-72
2022/10/16 05:14:39;;;;;;;12.45;6.57;;;;;;;;;;5092474;28;20031;-72
2022/10/16 05:17:05;;;;;;;9.45;6.28;;;;;;;;;;5092727;28;20032;-71
2022/10/16 05:19:31;;;;;;;10.55;6.35;;;;;;;;;;5093710;28;20032;-72
2022/10/16 05:21:57;;;;;;;12.25;6.82;;;;;;;;;;5094266;28;20027;-71
2022/10/16 05:24:23;;;;;;;11.43;6.88;;;;;;;;;;5092497;28;20030;-73
2022/10/16 05:26:50;;;;;;;11.80;7.00;;;;;;;;;;5094269;28;20384;-72
2022/10/16 05:29:16;;;;;;;12.85;7.07;;;;;;;;;;5097127;28;20020;-73
2022/10/16 05:31:42;;;;;;;12.30;7.05;;;;;;;;;;5098713;28;20020;-71
2022/10/16 05:34:08;;;;;;;15.35;7.82;;;;;;;;;;5091212;28;20945;-77
2022/10/16 05:36:35;;;;;;;10.07;7.38;;;;;;;;;;5092068;28;20039;-73
2022/10/16 05:39:01;;;;;;;12.63;6.93;;;;;;;;;;5091685;28;20036;-73
2022/10/16 05:41:27;;;;;;;14.32;7.43;;;;;;;;;;5093049;28;20030;-72
2022/10/16 05:43:53;;;;;;;12.73;7.07;;;;;;;;;;5075070;28;20035;-73
2022/10/16 05:46:19;;;;;;;12.23;7.50;;;;;;;;;;5092284;28;20027;-73
2022/10/16 05:48:46;;;;;;;12.13;8.15;;;;;;;;;;5092679;28;20020;-76
2022/10/16 05:51:13;;;;;;;14.82;7.88;;;;;;;;;;5080163;28;20098;-72
2022/10/16 05:53:40;;;;;;;12.80;6.55;;;;;;;;;;5092700;28;20032;-72
2022/10/16 05:56:07;;;;;;;13.18;6.47;;;;;;;;;;5091462;28;20036;-72
2022/10/16 05:58:33;;;;;;;15.60;9.70;;;;;;;;;;5092921;28;20466;-73
2022/10/16 06:01:04;;;;;;;14.38;9.88;;;;;;;;;;5093212;28;20516;-72
2022/10/16 06:03:30;;;;;;;10.18;7.50;;;;;;;;;;5091723;28;20020;-74
2022/10/16 06:05:56;;;;;;;11.07;7.05;;;;;;;;;;5085939;28;20103;-73
2022/10/16 06:08:23;;;;;;;11.38;7.90;;;;;;;;;;5088307;28;20036;-73
2022/10/16 06:10:50;;;;;;;14.77;7.40;;;;;;;;;;5089823;28;20047;-73
2022/10/16 06:13:16;;;;;;;9.27;7.00;;;;;;;;;;5089727;28;20066;-73
2022/10/16 06:15:43;;;;;;;13.73;6.57;;;;;;;;;;5087334;28;20024;-73
2022/10/16 06:18:09;;;;;;;10.40;6.93;;;;;;;;;;5087127;28;20162;-74
2022/10/16 06:20:36;;;;;;;8.93;6.32;;;;;;;;;;5088157;28;20039;-75
2022/10/16 06:23:03;;;;;;;8.63;6.00;;;;;;;;;;5091371;28;20100;-72
2022/10/16 06:25:30;;;;;;;9.32;6.07;;;;;;;;;;5094367;28;20024;-72
2022/10/16 06:27:56;;;;;;;13.02;6.82;;;;;;;;;;5073360;28;20069;-72
2022/10/16 06:30:22;;;;;;;11.25;6.53;;;;;;;;;;5089969;28;20028;-72
2022/10/16 06:32:48;;;;;;;8.35;6.30;;;;;;;;;;5091977;28;20066;-74
2022/10/16 06:35:14;;;;;;;11.20;6.65;;;;;;;;;;5091339;28;20020;-72
2022/10/16 06:37:40;;;;;;;12.40;6.50;;;;;;;;;;5088841;28;20032;-72
2022/10/16 06:40:06;;;;;;;9.70;6.30;;;;;;;;;;5090657;28;20063;-72
2022/10/16 06:42:32;;;;;;;10.20;6.72;;;;;;;;;;5091735;28;20028;-72
2022/10/16 06:44:58;;;;;;;8.38;6.35;;;;;;;;;;5088494;28;20129;-72
2022/10/16 06:47:24;;;;;;;8.90;5.80;;;;;;;;;;5087800;28;20020;-73
2022/10/16 06:49:51;;;;;;;9.32;5.90;;;;;;;;;;5093864;28;20153;-74
2022/10/16 06:52:17;;;;;;;14.00;6.28;;;;;;;;;;5089265;28;20032;-73
2022/10/16 06:54:43;;;;;;;8.55;5.85;;;;;;;;;;5094678;28;20024;-75
2022/10/16 06:57:09;;;;;;;7.47;5.40;;;;;;;;;;5097161;28;20061;-72
2022/10/16 06:59:35;;;;;;;9.25;5.32;;;;;;;;;;5092980;28;20039;-72
2022/10/16 07:02:01;;;;;;;7.95;5.90;;;;;;;;;;5092054;28;20147;-73
2022/10/16 07:04:27;;;;;;;6.60;5.22;;;;;;;;;;5085807;28;20039;-72
2022/10/16 07:06:53;;;;;;;6.68;5.82;;;;;;;;;;5090543;28;20520;-72
2022/10/16 07:09:19;;;;;;;6.20;5.15;;;;;;;;;;5091169;28;20034;-73
2022/10/16 07:11:45;;;;;;;10.10;5.75;;;;;;;;;;5088616;28;20062;-73
2022/10/16 07:14:16;;;;;;;9.50;5.75;;;;;;;;;;5090835;28;20393;-73
2022/10/16 07:16:42;;;;;;;9.23;5.95;;;;;;;;;;5089853;28;20073;-73
2022/10/16 07:19:08;;;;;;;7.10;5.88;;;;;;;;;;5091215;28;20032;-73
2022/10/16 07:21:35;;;;;;;8.23;5.95;;;;;;;;;;5091019;28;20028;-73
2022/10/16 07:24:05;;;;;;;9.52;7.00;;;;;;;;;;5089639;28;20428;-74
2022/10/16 07:26:33;;;;;;;8.25;6.68;;;;;;;;;;5088409;28;20055;-73
2022/10/16 07:29:00;;;;;;;9.32;5.97;;;;;;;;;;5090072;28;20703;-73
2022/10/16 07:31:39;;;;;;;6.60;5.82;;;;;;;;;;5089882;28;20111;-74
2022/10/16 07:34:08;;;;;;;7.60;6.03;;;;;;;;;;5089391;28;20085;-73
2022/10/16 07:36:34;;;;;;;7.93;6.18;;;;;;;;;;5090480;28;20055;-74
2022/10/16 07:39:00;;;;;;;6.68;5.63;;;;;;;;;;5079167;28;20036;-72
2022/10/16 07:41:27;;;;;;;10.07;6.63;;;;;;;;;;5089832;28;20011;-74
2022/10/16 07:43:54;;;;;;;8.85;6.30;;;;;;;;;;5078663;28;20469;-74
2022/10/16 07:46:21;;;;;;;13.52;7.05;;;;;;;;;;5097826;28;20036;-73
2022/10/16 07:48:47;;;;;;;8.70;6.50;;;;;;;;;;5096120;28;20031;-72
2022/10/16 07:51:18;;;;;;;9.20;5.82;;;;;;;;;;5091215;28;20024;-73
2022/10/16 07:53:44;;;;;;;7.78;6.72;;;;;;;;;;5088388;28;20042;-72
2022/10/16 07:56:10;;;;;;;8.55;7.13;;;;;;;;;;5090725;28;20069;-72
2022/10/16 07:58:39;;;;;;;10.88;7.50;;;;;;;;;;5090286;28;20499;-72
2022/10/16 08:01:06;;;;;;;13.90;10.75;;;;;;;;;;5090191;28;20173;-74
2022/10/16 08:03:32;;;;;;;19.95;12.23;;;;;;;;;;5075514;28;20024;-74
2022/10/16 08:05:59;;;;;;;11.52;6.47;;;;;;;;;;5089185;28;20063;-73
2022/10/16 08:08:25;;;;;;;13.20;6.63;;;;;;;;;;5086954;28;20051;-73
2022/10/16 08:10:51;;;;;;;8.93;6.00;;;;;;;;;;5088990;28;20024;-73
2022/10/16 08:13:17;;;;;;;9.60;6.68;;;;;;;;;;5089954;28;20036;-73
2022/10/16 08:15:43;;;;;;;8.63;6.90;;;;;;;;;;5089492;28;20070;-73
2022/10/16 08:18:10;;;;;;;9.27;7.00;;;;;;;;;;5089929;28;20035;-73
2022/10/16 08:20:38;;;;;;;8.00;6.38;;;;;;;;;;5086353;28;20040;-73
2022/10/16 08:23:05;;;;;;;7.97;5.28;;;;;;;;;;5091312;28;20048;-73
2022/10/16 08:25:32;;;;;;;9.10;5.18;;;;;;;;;;5084520;28;20035;-73
2022/10/16 08:27:58;;;;;;;11.55;5.50;;;;;;;;;;5080480;28;20055;-73
2022/10/16 08:30:24;;;;;;;8.57;5.22;;;;;;;;;;5072729;28;20048;-73
2022/10/16 08:32:50;;;;;;;10.18;5.50;;;;;;;;;;5073107;28;20534;-72
2022/10/16 08:35:16;;;;;;;10.30;5.40;;;;;;;;;;5079623;28;20032;-72
2022/10/16 08:37:43;;;;;;;10.00;6.25;;;;;;;;;;5080089;28;20388;-72
2022/10/16 08:40:31;;;;;;;8.57;5.63;;;;;;;;;;5076729;28;20040;-73
2022/10/16 08:43:08;;;;;;;8.23;5.50;;;;;;;;;;5079454;28;20031;-73
2022/10/16 08:45:37;;;;;;;28.70;6.45;;;;;;;;;;5076468;28;20028;-74
2022/10/16 08:48:19;;;;;;;9.40;6.07;;;;;;;;;;5081768;28;20031;-72
2022/10/16 08:50:46;;;;;;;9.77;5.55;;;;;;;;;;5092493;28;20054;-73
2022/10/16 08:53:23;;;;;;;8.75;5.47;;;;;;;;;;5093361;28;20028;-74
2022/10/16 08:55:51;;;;;;;9.68;5.70;;;;;;;;;;5091366;28;20027;-73
2022/10/16 08:58:18;;;;;;;10.68;6.65;;;;;;;;;;5093068;28;20123;-73
2022/10/16 09:00:47;;;;;;;10.02;6.22;;;;;;;;;;5093443;28;20098;-73
2022/10/16 09:03:31;;;;;;;14.80;5.45;;;;;;;;;;5093116;28;20028;-73
2022/10/16 09:06:16;;;;;;;13.80;6.50;;;;;;;;;;5091508;27;20023;-74
2022/10/16 09:08:54;;;;;;;11.90;6.03;;;;;;;;;;5096545;28;20036;-72
2022/10/16 09:11:32;;;;;;;24.60;6.47;;;;;;;;;;5092760;28;20381;-73
2022/10/16 09:14:16;;;;;;;29.48;7.15;;;;;;;;;;5093685;28;20504;-74
2022/10/16 09:16:47;;;;;;;10.00;5.68;;;;;;;;;;5085336;28;20035;-76
2022/10/16 09:19:21;;;;;;;11.57;5.72;;;;;;;;;;5089580;28;20492;-75
2022/10/16 09:21:47;;;;;;;12.85;5.78;;;;;;;;;;5090668;28;20060;-73
2022/10/16 09:24:18;;;;;;;24.85;9.50;;;;;;;;;;5093745;28;20039;-73
2022/10/16 09:26:44;;;;;;;13.02;6.07;;;;;;;;;;5075570;28;20373;-73
2022/10/16 09:29:14;;;;;;;9.38;6.00;;;;;;;;;;5093998;28;20024;-73
2022/10/16 09:31:41;;;;;;;12.55;6.00;;;;;;;;;;5093275;28;20039;-73
2022/10/16 09:34:14;;;;;;;11.52;5.60;;;;;;;;;;5093367;28;20040;-73
2022/10/16 09:36:41;;;;;;;13.53;6.20;;;;;;;;;;5093589;28;20047;-73
2022/10/16 09:39:09;;;;;;;10.90;5.50;;;;;;;;;;5093396;28;20039;-72
2022/10/16 09:41:38;;;;;;;14.52;5.90;;;;;;;;;;5092818;28;20024;-73
2022/10/16 09:44:05;;;;;;;18.73;6.15;;;;;;;;;;5087415;28;20523;-73
2022/10/16 09:46:32;;;;;;;9.93;5.60;;;;;;;;;;5088296;28;20047;-74
2022/10/16 09:49:19;;;;;;;10.68;5.95;;;;;;;;;;5069185;28;20428;-73
2022/10/16 09:51:45;;;;;;;13.48;5.30;;;;;;;;;;5092365;28;20012;-73
2022/10/16 09:54:11;;;;;;;17.65;6.28;;;;;;;;;;5093480;28;20028;-73
2022/10/16 09:56:41;;;;;;;12.23;6.15;;;;;;;;;;5093130;28;20020;-72
2022/10/16 09:59:12;;;;;;;9.85;5.40;;;;;;;;;;5085160;28;20123;-73
2022/10/16 10:01:48;;;;;;;13.48;6.18;;;;;;;;;;5093299;28;20017;-73
2022/10/16 10:04:14;;;;;;;9.15;5.75;;;;;;;;;;5086551;28;20073;-73
2022/10/16 10:06:45;;;;;;;10.27;6.15;;;;;;;;;;5091246;28;20047;-72
2022/10/16 10:09:17;;;;;;;12.52;6.07;;;;;;;;;;5087379;28;20028;-72
2022/10/16 10:11:54;;;;;;;489.33;41.35;;;;;;;;;;5090262;28;20534;-72
2022/10/16 10:14:25;;;;;;;18.60;6.30;;;;;;;;;;5096702;28;20027;-72
2022/10/16 10:17:02;;;;;;;9.57;5.82;;;;;;;;;;5092701;28;20048;-74
2022/10/16 10:19:31;;;;;;;12.07;6.13;;;;;;;;;;5097283;28;20063;-71
2022/10/16 10:21:57;;;;;;;13.77;6.20;;;;;;;;;;5091766;28;20046;-72
2022/10/16 10:24:23;;;;;;;9.52;6.18;;;;;;;;;;5091281;28;20100;-73
2022/10/16 10:26:58;;;;;;;25.75;6.57;;;;;;;;;;5090836;28;20016;-72
2022/10/16 10:29:29;;;;;;;12.98;5.90;;;;;;;;;;5091303;28;20036;-72
2022/10/16 10:32:20;;;;;;;22.95;11.07;;;;;;;;;;5091113;28;20114;-72
2022/10/16 10:35:01;;;;;;;15.25;6.78;;;;;;;;;;5087884;28;20020;-72
2022/10/16 10:37:53;;;;;;;13.07;7.45;;;;;;;;;;5087161;28;20031;-72
2022/10/16 10:40:40;;;;;;;16.30;6.32;;;;;;;;;;5053404;28;20052;-72
2022/10/16 10:43:18;;;;;;;15.88;6.57;;;;;;;;;;5090366;28;20063;-72
2022/10/16 10:45:46;;;;;;;10.40;6.13;;;;;;;;;;5088790;28;20055;-73
2022/10/16 10:48:15;;;;;;;12.43;7.43;;;;;;;;;;5091710;28;20048;-74
2022/10/16 10:51:00;;;;;;;23.00;7.40;;;;;;;;;;5093023;28;20028;-72
2022/10/16 10:53:35;;;;;;;15.70;6.97;;;;;;;;;;5088203;28;20024;-73
2022/10/16 10:56:01;;;;;;;8.68;6.57;;;;;;;;;;5087496;28;20401;-72
2022/10/16 10:58:40;;;;;;;12.10;7.03;;;;;;;;;;5090096;28;20515;-72
2022/10/16 11:01:06;;;;;;;10.85;6.30;;;;;;;;;;5092286;28;20043;-74
2022/10/16 11:03:42;;;;;;;11.95;5.90;;;;;;;;;;5090955;28;20020;-72
2022/10/16 11:06:11;;;;;;;11.02;5.90;;;;;;;;;;5087613;28;20047;-73
2022/10/16 11:09:03;;;;;;;13.25;6.55;;;;;;;;;;5092617;28;20024;-74
2022/10/16 11:11:32;;;;;;;18.25;6.97;;;;;;;;;;5083652;28;20052;-72
2022/10/16 11:14:17;;;;;;;10.45;6.10;;;;;;;;;;5092472;28;20024;-73
2022/10/16 11:16:49;;;;;;;12.18;5.78;;;;;;;;;;5090527;28;20082;-73
2022/10/16 11:19:34;;;;;;;9.90;6.07;;;;;;;;;;5092821;28;20357;-72
2022/10/16 11:22:03;;;;;;;33.67;23.27;;;;;;;;;;5090942;28;20027;-73
2022/10/16 11:24:45;;;;;;;7.32;5.60;;;;;;;;;;5084826;28;20051;-73
2022/10/16 11:27:17;;;;;;;30.98;7.50;;;;;;;;;;5082397;28;20105;-73
2022/10/16 11:29:53;;;;;;;13.57;6.72;;;;;;;;;;5101383;28;20024;-73
2022/10/16 11:32:23;;;;;;;9.07;6.00;;;;;;;;;;5086744;28;20070;-72
2022/10/16 11:34:52;;;;;;;17.27;8.93;;;;;;;;;;5095413;28;20099;-71
2022/10/16 11:37:21;;;;;;;13.57;7.30;;;;;;;;;;5076118;28;20470;-72
2022/10/16 11:39:47;;;;;;;13.75;6.72;;;;;;;;;;5089826;28;20042;-72
2022/10/16 11:42:23;;;;;;;13.18;6.63;;;;;;;;;;5074771;28;20047;-73
2022/10/16 11:44:55;;;;;;;17.98;6.40;;;;;;;;;;5086596;28;20158;-74
2022/10/16 11:47:36;;;;;;;30.27;7.80;;;;;;;;;;5092106;28;20031;-72
2022/10/16 11:50:04;;;;;;;14.38;6.35;;;;;;;;;;5091745;28;20024;-72
2022/10/16 11:52:52;;;;;;;28.60;7.88;;;;;;;;;;5074229;28;20202;-72
2022/10/16 11:55:21;;;;;;;9.57;6.28;;;;;;;;;;5088969;28;20032;-72
2022/10/16 11:58:10;;;;;;;11.93;6.40;;;;;;;;;;5090241;28;20020;-73
2022/10/16 12:00:52;;;;;;;10.45;7.25;;;;;;;;;;5028563;28;20046;-73
2022/10/16 12:03:21;;;;;;;13.95;7.40;;;;;;;;;;5037497;28;20037;-73
2022/10/16 12:05:53;;;;;;;12.43;7.05;;;;;;;;;;5023569;28;20030;-72
2022/10/16 12:08:22;;;;;;;21.77;7.70;;;;;;;;;;5031632;28;20128;-73
2022/10/16 12:10:52;;;;;;;10.45;7.38;;;;;;;;;;5028151;28;20028;-73
2022/10/16 12:13:38;;;;;;;13.43;8.02;;;;;;;;;;5030717;28;20278;-73
2022/10/16 12:16:06;;;;;;;10.15;7.15;;;;;;;;;;5010396;28;20025;-73
2022/10/16 12:18:32;;;;;;;11.57;6.82;;;;;;;;;;5027011;28;20045;-73
2022/10/16 12:21:04;;;;;;;10.93;7.43;;;;;;;;;;5027680;28;20560;-74
2022/10/16 12:23:30;;;;;;;10.13;7.00;;;;;;;;;;5031297;28;20029;-72
2022/10/16 12:25:57;;;;;;;13.45;7.88;;;;;;;;;;5034867;28;20025;-72
2022/10/16 12:28:27;;;;;;;11.32;7.03;;;;;;;;;;5030460;28;20032;-72
2022/10/16 12:31:01;;;;;;;11.65;6.63;;;;;;;;;;5028399;28;20041;-75
2022/10/16 12:33:31;;;;;;;15.00;7.45;;;;;;;;;;5031546;28;20057;-76
2022/10/16 12:35:58;;;;;;;10.65;7.13;;;;;;;;;;5037445;28;20070;-71
2022/10/16 12:38:27;;;;;;;12.40;6.78;;;;;;;;;;5075287;28;20400;-71
2022/10/16 12:40:57;;;;;;;10.98;6.85;;;;;;;;;;5092792;28;20085;-75
2022/10/16 12:43:23;;;;;;;11.75;6.95;;;;;;;;;;5102439;28;20024;-74
2022/10/16 12:46:02;;;;;;;12.65;7.07;;;;;;;;;;5092949;28;20024;-77
2022/10/16 12:48:46;;;;;;;13.57;7.00;;;;;;;;;;5078237;28;20404;-79
2022/10/16 12:51:25;;;;;;;10.77;6.32;;;;;;;;;;5071690;28;20043;-74
2022/10/16 12:54:00;;;;;;;11.98;6.60;;;;;;;;;;5076964;28;20071;-73
2022/10/16 12:56:43;;;;;;;11.05;5.97;;;;;;;;;;5066215;28;20478;-72
2022/10/16 12:59:09;;;;;;;10.20;6.43;;;;;;;;;;5073395;28;20488;-74
2022/10/16 13:01:52;;;;;;;13.50;6.75;;;;;;;;;;5060244;28;20261;-77
2022/10/16 13:04:27;;;;;;;9.05;6.25;;;;;;;;;;5063612;28;20044;-73
2022/10/16 13:07:21;;;;;;;11.68;5.80;;;;;;;;;;5070657;28;20077;-72
2022/10/16 13:09:47;;;;;;;10.90;5.95;;;;;;;;;;5067679;28;20132;-72
2022/10/16 13:12:13;;;;;;;9.43;6.03;;;;;;;;;;5065752;28;20107;-71
2022/10/16 13:15:00;;;;;;;19.23;11.88;;;;;;;;;;5065206;28;20082;-71
2022/10/16 13:17:32;;;;;;;10.10;6.35;;;;;;;;;;5010024;28;20038;-72
2022/10/16 13:19:58;;;;;;;10.82;6.20;;;;;;;;;;5019762;28;20116;-73
2022/10/16 13:22:29;;;;;;;9.75;6.40;;;;;;;;;;5032495;28;20032;-73
2022/10/16 13:24:58;;;;;;;12.85;6.40;;;;;;;;;;5032742;28;20025;-75
2022/10/16 13:27:33;;;;;;;14.18;6.72;;;;;;;;;;5029418;28;20026;-74
2022/10/16 13:30:10;;;;;;;11.77;6.05;;;;;;;;;;5030698;28;20030;-72
2022/10/16 13:32:36;;;;;;;10.15;6.10;;;;;;;;;;5029146;28;20029;-72
2022/10/16 13:35:03;;;;;;;12.20;6.65;;;;;;;;;;5029342;28;20364;-72
2022/10/16 13:37:29;;;;;;;11.65;7.47;;;;;;;;;;5022732;28;20069;-72
2022/10/16 13:40:18;;;;;;;17.25;7.57;;;;;;;;;;5026075;28;20060;-72
2022/10/16 13:42:45;;;;;;;11.13;6.50;;;;;;;;;;5026924;28;20423;-72
2022/10/16 13:45:23;;;;;;;8.85;5.43;;;;;;;;;;5028449;28;20108;-72
2022/10/16 13:47:49;;;;;;;16.85;6.95;;;;;;;;;;5024442;28;20045;-72
2022/10/16 13:50:19;;;;;;;8.70;6.10;;;;;;;;;;5028595;28;20022;-72
2022/10/16 13:52:45;;;;;;;8.80;6.30;;;;;;;;;;5030841;28;20430;-72
2022/10/16 13:55:15;;;;;;;18.73;6.53;;;;;;;;;;5074836;28;20082;-73
2022/10/16 13:57:42;;;;;;;7.75;5.43;;;;;;;;;;5093474;28;20039;-73
2022/10/16 14:00:22;;;;;;;11.63;7.20;;;;;;;;;;5088713;28;20476;-73
2022/10/16 14:03:18;;;;;;;9.00;5.82;;;;;;;;;;5083247;28;20036;-72
2022/10/16 14:05:48;;;;;;;10.90;6.25;;;;;;;;;;5028501;28;20038;-72
2022/10/16 14:08:14;;;;;;;8.13;5.85;;;;;;;;;;5029645;28;20104;-73
2022/10/16 14:10:41;;;;;;;10.77;6.57;;;;;;;;;;5028706;28;20066;-74
2022/10/16 14:13:07;;;;;;;10.73;5.65;;;;;;;;;;5028939;28;20135;-72
2022/10/16 14:15:35;;;;;;;12.48;6.75;;;;;;;;;;5028554;28;20507;-72
2022/10/16 14:18:01;;;;;;;11.43;6.47;;;;;;;;;;5027593;28;20040;-74
2022/10/16 14:20:29;;;;;;;15.45;5.90;;;;;;;;;;5026699;28;20045;-73
2022/10/16 14:23:02;;;;;;;9.43;6.22;;;;;;;;;;5029894;28;20075;-73
2022/10/16 14:25:30;;;;;;;11.00;6.72;;;;;;;;;;5029513;28;20034;-74
2022/10/16 14:28:15;;;;;;;9.90;6.25;;;;;;;;;;5029319;28;20025;-72
2022/10/16 14:30:58;;;;;;;15.13;7.30;;;;;;;;;;5031222;28;20034;-73
2022/10/16 14:33:24;;;;;;;15.07;6.57;;;;;;;;;;5031099;28;20029;-74
2022/10/16 14:36:11;;;;;;;11.13;5.85;;;;;;;;;;5025717;28;20487;-73
2022/10/16 14:38:41;;;;;;;16.30;5.70;;;;;;;;;;5028323;28;20036;-73
2022/10/16 14:41:08;;;;;;;10.73;5.55;;;;;;;;;;5030178;28;20502;-73
2022/10/16 14:43:35;;;;;;;8.93;5.40;;;;;;;;;;5091188;28;20110;-73
2022/10/16 14:46:03;;;;;;;8.15;5.20;;;;;;;;;;5089515;28;20410;-73
2022/10/16 14:48:29;;;;;;;14.43;6.13;;;;;;;;;;5098268;28;20028;-74
2022/10/16 14:50:55;;;;;;;10.43;5.90;;;;;;;;;;5090184;28;20043;-75